createdAt,value
2019-06-08T07:20:56.444Z,25.43
2019-06-08T07:23:01.390Z,23.73
2019-06-08T07:25:06.649Z,22.73
2019-06-08T07:27:11.625Z,29.83
2019-06-08T07:29:16.647Z,22.10
2019-06-08T07:31:21.803Z,24.37
2019-06-08T07:33:26.747Z,24.03
2019-06-08T07:35:32.402Z,24.20
2019-06-08T07:37:37.384Z,20.37
2019-06-08T07:39:42.207Z,23.90
2019-06-08T07:41:51.720Z,20.40
2019-06-08T07:43:56.703Z,20.20
2019-06-08T07:46:01.652Z,19.73
2019-06-08T07:48:07.771Z,19.57
2019-06-08T07:50:12.692Z,20.53
2019-06-08T07:52:17.751Z,16.63
2019-06-08T07:54:22.912Z,21.67
2019-06-08T07:56:28.133Z,19.53
2019-06-08T07:58:32.987Z,21.17
2019-06-08T08:00:38.048Z,20.93
2019-06-08T08:02:43.167Z,19.27
2019-06-08T08:04:48.476Z,18.57
2019-06-08T08:06:54.524Z,19.37
2019-06-08T08:08:59.569Z,15.90
2019-06-08T08:11:05.930Z,20.30
2019-06-08T08:13:10.932Z,18.23
2019-06-08T08:15:16.107Z,19.50
2019-06-08T08:17:24.760Z,18.80
2019-06-08T08:19:29.683Z,19.57
2019-06-08T08:21:34.986Z,18.87
2019-06-08T08:23:40.147Z,15.70
2019-06-08T08:25:47.310Z,18.40
2019-06-08T08:27:52.466Z,16.63
2019-06-08T08:30:00.549Z,22.13
2019-06-08T08:32:07.439Z,17.73
2019-06-08T08:34:11.785Z,16.50
2019-06-08T08:36:18.004Z,21.30
2019-06-08T08:38:23.647Z,18.07
2019-06-08T08:40:28.405Z,15.00
2019-06-08T08:42:33.345Z,17.53
2019-06-08T08:44:38.278Z,17.97
2019-06-08T08:46:43.210Z,17.43
2019-06-08T08:48:48.647Z,17.60
2019-06-08T08:50:54.150Z,16.77
2019-06-08T08:53:01.176Z,15.20
2019-06-08T08:55:08.280Z,14.80
2019-06-08T08:57:13.002Z,14.93
2019-06-08T08:59:17.904Z,16.90
2019-06-08T09:01:23.129Z,16.50
2019-06-08T09:03:33.233Z,16.03
2019-06-08T09:05:34.705Z,16.07
2019-06-08T09:07:39.902Z,18.90
2019-06-08T09:09:44.841Z,19.30
2019-06-08T09:11:51.575Z,18.43
2019-06-08T09:14:02.486Z,18.60
2019-06-08T09:16:04.314Z,15.37
2019-06-08T09:18:10.567Z,14.57
2019-06-08T09:20:18.319Z,17.23
2019-06-08T09:22:22.104Z,17.10
2019-06-08T09:24:28.609Z,15.23
2019-06-08T09:26:33.644Z,14.57
2019-06-08T09:28:39.719Z,18.23
2019-06-08T09:30:44.960Z,15.67
2019-06-08T09:32:50.082Z,17.43
2019-06-08T09:34:57.184Z,17.00
2019-06-08T09:37:03.515Z,21.07
2019-06-08T09:39:12.767Z,16.00
2019-06-08T09:41:18.458Z,16.03
2019-06-08T09:43:22.871Z,15.53
2019-06-08T09:45:29.009Z,19.27
2019-06-08T09:47:34.034Z,16.47
2019-06-08T09:49:38.898Z,19.83
2019-06-08T09:51:43.753Z,15.83
2019-06-08T09:53:49.882Z,15.63
2019-06-08T09:55:56.638Z,17.67
2019-06-08T09:58:07.745Z,13.13
2019-06-08T10:00:18.020Z,15.57
2019-06-08T10:02:18.499Z,14.37
2019-06-08T10:04:25.604Z,16.67
2019-06-08T10:06:30.020Z,16.77
2019-06-08T10:08:35.076Z,15.10
2019-06-08T10:10:40.205Z,14.70
2019-06-08T10:12:48.162Z,14.47
2019-06-08T10:14:51.821Z,16.83
2019-06-08T10:16:59.141Z,14.80
2019-06-08T10:19:05.198Z,15.53
2019-06-08T10:21:10.108Z,15.73
2019-06-08T10:23:30.312Z,15.03
2019-06-08T10:25:21.597Z,15.83
2019-06-08T10:27:28.361Z,14.27
2019-06-08T10:29:33.281Z,16.77
2019-06-08T10:31:43.321Z,15.17
2019-06-08T10:33:48.023Z,14.07
2019-06-08T10:35:51.720Z,15.30
2019-06-08T10:38:01.516Z,15.40
2019-06-08T10:40:05.713Z,14.03
2019-06-08T10:42:11.561Z,14.80
2019-06-08T10:44:18.248Z,15.40
2019-06-08T10:46:23.375Z,16.63
2019-06-08T10:48:28.468Z,13.87
2019-06-08T10:50:33.325Z,16.00
2019-06-08T10:52:39.122Z,16.63
2019-06-08T10:54:44.419Z,15.13
2019-06-08T10:56:49.571Z,14.40
2019-06-08T10:58:54.562Z,14.13
2019-06-08T11:01:02.259Z,15.47
2019-06-08T11:03:09.768Z,14.93
2019-06-08T11:05:14.169Z,16.87
2019-06-08T11:07:19.712Z,15.57
2019-06-08T11:09:24.493Z,15.13
2019-06-08T11:11:29.373Z,14.20
2019-06-08T11:13:34.363Z,14.60
2019-06-08T11:15:39.279Z,15.70
2019-06-08T11:17:44.124Z,13.63
2019-06-08T11:19:48.963Z,14.63
2019-06-08T11:21:53.981Z,15.07
2019-06-08T11:24:07.646Z,14.70
2019-06-08T11:26:16.714Z,13.73
2019-06-08T11:28:14.894Z,13.80
2019-06-08T11:30:23.553Z,16.50
2019-06-08T11:32:24.829Z,16.07
2019-06-08T11:34:29.756Z,13.40
2019-06-08T11:36:34.659Z,13.97
2019-06-08T11:38:39.758Z,15.27
2019-06-08T11:40:44.680Z,18.10
2019-06-08T11:42:52.165Z,15.27
2019-06-08T11:44:58.663Z,14.77
2019-06-08T11:47:04.649Z,15.20
2019-06-08T11:49:14.334Z,16.77
2019-06-08T11:51:16.260Z,14.00
2019-06-08T11:53:21.350Z,14.10
2019-06-08T11:55:28.169Z,19.67
2019-06-08T11:57:33.063Z,17.37
2019-06-08T11:59:40.318Z,17.63
2019-06-08T12:01:45.354Z,19.60
2019-06-08T12:03:50.282Z,18.70
2019-06-08T12:05:55.204Z,20.67
2019-06-08T12:08:02.861Z,22.37
2019-06-08T12:10:10.578Z,23.17
2019-06-08T12:12:18.671Z,18.40
2019-06-08T12:14:20.860Z,24.67
2019-06-08T12:16:28.292Z,19.53
2019-06-08T12:18:33.472Z,21.87
2019-06-08T12:20:38.502Z,28.03
2019-06-08T12:22:43.863Z,26.07
2019-06-08T12:24:48.775Z,20.17
2019-06-08T12:27:00.156Z,23.27
2019-06-08T12:29:01.349Z,19.03
2019-06-08T12:31:11.530Z,21.53
2019-06-08T12:33:15.325Z,22.20
2019-06-08T12:35:20.640Z,23.97
2019-06-08T12:37:27.438Z,25.50
2019-06-08T12:39:32.166Z,21.37
2019-06-08T12:41:37.715Z,23.83
2019-06-08T12:43:42.843Z,25.73
2019-06-08T12:45:47.895Z,25.57
2019-06-08T12:47:52.687Z,22.07
2019-06-08T12:49:58.453Z,20.70
2019-06-08T12:52:03.467Z,17.30
2019-06-08T12:54:11.053Z,18.33
2019-06-08T12:56:18.658Z,21.60
2019-06-08T12:58:22.107Z,17.40
2019-06-08T13:00:28.076Z,17.23
2019-06-08T13:02:33.244Z,15.70
2019-06-08T13:04:38.520Z,19.37
2019-06-08T13:06:43.382Z,17.10
2019-06-08T13:08:49.486Z,20.37
2019-06-08T13:10:54.328Z,17.30
2019-06-08T13:12:59.207Z,17.07
2019-06-08T13:15:04.376Z,18.50
2019-06-08T13:17:10.364Z,16.47
2019-06-08T13:19:16.258Z,16.77
2019-06-08T13:21:34.051Z,15.10
2019-06-08T13:23:28.746Z,19.53
2019-06-08T13:25:40.060Z,16.77
2019-06-08T13:27:40.060Z,14.87
2019-06-08T13:29:45.070Z,14.07
2019-06-08T13:31:50.077Z,15.93
2019-06-08T13:33:54.945Z,13.77
2019-06-08T13:36:00.262Z,14.20
2019-06-08T13:38:05.094Z,15.23
2019-06-08T13:40:11.404Z,13.23
2019-06-08T13:42:18.457Z,15.73
2019-06-08T13:44:23.838Z,12.90
2019-06-08T13:46:28.648Z,12.77
2019-06-08T13:48:33.573Z,16.07
2019-06-08T13:50:38.432Z,12.93
2019-06-08T13:52:43.442Z,12.33
2019-06-08T13:54:48.469Z,12.50
2019-06-08T13:56:53.499Z,12.37
2019-06-08T13:58:58.375Z,12.60
2019-06-08T14:01:03.233Z,15.37
2019-06-08T14:03:08.575Z,13.73
2019-06-08T14:05:14.137Z,14.93
2019-06-08T14:07:25.278Z,15.00
2019-06-08T14:09:28.534Z,14.33
2019-06-08T14:11:32.499Z,17.00
2019-06-08T14:13:38.034Z,15.17
2019-06-08T14:15:43.370Z,15.73
2019-06-08T14:17:48.440Z,22.27
2019-06-08T14:19:53.879Z,15.73
2019-06-08T14:21:58.738Z,20.03
2019-06-08T14:24:03.646Z,15.20
2019-06-08T14:26:08.517Z,12.50
2019-06-08T14:28:13.430Z,13.57
2019-06-08T14:30:19.722Z,13.10
2019-06-08T14:32:25.939Z,16.60
2019-06-08T14:34:31.218Z,15.73
2019-06-08T14:36:40.617Z,12.80
2019-06-08T14:38:42.846Z,13.80
2019-06-08T14:40:47.787Z,13.53
2019-06-08T14:42:52.668Z,12.10
2019-06-08T14:44:57.890Z,12.50
2019-06-08T14:47:14.266Z,12.63
2019-06-08T14:49:26.211Z,10.87
2019-06-08T14:51:30.147Z,10.30
2019-06-08T14:53:34.858Z,10.93
2019-06-08T14:55:39.711Z,12.70
2019-06-08T14:57:44.777Z,10.70
2019-06-08T14:59:50.303Z,12.00
2019-06-08T15:01:55.500Z,13.97
2019-06-08T15:04:00.496Z,12.67
2019-06-08T15:06:07.768Z,13.77
2019-06-08T15:08:12.018Z,12.07
2019-06-08T15:10:18.188Z,10.73
2019-06-08T15:12:23.802Z,14.97
2019-06-08T15:14:33.627Z,14.10
2019-06-08T15:16:35.404Z,17.43
2019-06-08T15:18:40.555Z,13.43
2019-06-08T15:20:48.106Z,17.63
2019-06-08T15:22:53.044Z,13.10
2019-06-08T15:24:58.087Z,16.23
2019-06-08T15:27:02.932Z,16.07
2019-06-08T15:29:07.844Z,15.50
2019-06-08T15:31:12.782Z,13.53
2019-06-08T15:33:18.253Z,14.10
2019-06-08T15:35:25.140Z,14.87
2019-06-08T15:37:32.288Z,17.83
2019-06-08T15:39:41.118Z,13.80
2019-06-08T15:41:48.789Z,19.80
2019-06-08T15:43:59.960Z,17.43
2019-06-08T15:46:08.675Z,15.23
2019-06-08T15:48:20.202Z,15.87
2019-06-08T15:50:24.172Z,15.17
2019-06-08T15:52:32.555Z,12.97
2019-06-08T15:54:40.988Z,21.57
2019-06-08T15:56:51.800Z,18.07
2019-06-08T15:58:54.629Z,15.77
2019-06-08T16:01:00.340Z,20.13
2019-06-08T16:03:06.421Z,16.67
2019-06-08T16:05:11.883Z,15.40
2019-06-08T16:07:27.664Z,20.83
2019-06-08T16:09:34.958Z,29.10
2019-06-08T16:11:55.210Z,25.53
2019-06-08T16:14:05.011Z,24.37
2019-06-08T16:16:10.445Z,22.10
2019-06-08T16:18:17.331Z,20.50
2019-06-08T16:20:25.378Z,24.50
2019-06-08T16:22:35.987Z,25.63
2019-06-08T16:24:42.321Z,22.80
2019-06-08T16:26:53.191Z,26.63
2019-06-08T16:29:00.435Z,23.33
2019-06-08T16:31:09.622Z,26.73
2019-06-08T16:33:15.353Z,21.97
2019-06-08T16:35:29.555Z,24.87
2019-06-08T16:37:35.734Z,23.67
2019-06-08T16:39:48.063Z,27.77
2019-06-08T16:42:02.236Z,21.13
2019-06-08T16:44:10.222Z,19.80
2019-06-08T16:46:16.390Z,21.50
2019-06-08T16:48:25.836Z,23.17
2019-06-08T16:50:32.230Z,23.23
2019-06-08T16:52:38.699Z,21.00
2019-06-08T16:54:44.470Z,20.87
2019-06-08T16:56:50.073Z,23.53
2019-06-08T16:58:55.511Z,23.30
2019-06-08T17:01:03.852Z,23.47
2019-06-08T17:03:09.774Z,18.50
2019-06-08T17:05:15.845Z,20.70
2019-06-08T17:07:25.426Z,16.63
2019-06-08T17:09:32.512Z,17.93
2019-06-08T17:11:38.921Z,17.30
2019-06-08T17:13:45.578Z,19.03
2019-06-08T17:15:51.097Z,18.87
2019-06-08T17:17:56.419Z,15.90
2019-06-08T17:20:04.618Z,24.30
2019-06-08T17:22:10.732Z,20.70
2019-06-08T17:24:23.980Z,16.33
2019-06-08T17:26:34.660Z,19.07
2019-06-08T17:28:41.305Z,18.53
2019-06-08T17:30:47.779Z,22.17
2019-06-08T17:32:53.582Z,19.73
2019-06-08T17:34:58.508Z,16.47
2019-06-08T17:37:03.525Z,14.27
2019-06-08T17:39:09.644Z,15.97
2019-06-08T17:41:15.084Z,17.90
2019-06-08T17:43:20.653Z,18.00
2019-06-08T17:45:25.490Z,22.77
2019-06-08T17:47:30.323Z,30.90
2019-06-08T17:49:38.666Z,16.57
2019-06-08T17:51:44.632Z,18.77
2019-06-08T17:53:49.447Z,19.43
2019-06-08T17:55:56.685Z,18.20
2019-06-08T17:58:03.698Z,20.27
2019-06-08T18:00:15.353Z,14.47
2019-06-08T18:02:27.972Z,19.03
2019-06-08T18:04:28.952Z,15.57
2019-06-08T18:06:34.100Z,18.80
2019-06-08T18:08:42.128Z,16.90
2019-06-08T18:10:49.043Z,21.60
2019-06-08T18:12:58.952Z,17.77
2019-06-08T18:15:00.479Z,18.67
2019-06-08T18:17:05.396Z,17.93
2019-06-08T18:19:22.273Z,23.47
2019-06-08T18:21:28.270Z,16.57
2019-06-08T18:23:34.277Z,17.13
2019-06-08T18:25:40.609Z,19.70
2019-06-08T18:28:02.679Z,16.80
2019-06-08T18:29:52.365Z,15.23
2019-06-08T18:31:58.100Z,19.70
2019-06-08T18:34:03.576Z,21.00
2019-06-08T18:36:08.371Z,18.90
2019-06-08T18:38:13.221Z,21.90
2019-06-08T18:40:18.272Z,20.30
2019-06-08T18:42:23.229Z,19.27
2019-06-08T18:44:28.568Z,16.20
2019-06-08T18:46:34.911Z,22.00
2019-06-08T18:48:42.135Z,17.60
2019-06-08T18:50:48.548Z,23.27
2019-06-08T18:52:54.001Z,16.83
2019-06-08T18:54:58.792Z,17.13
2019-06-08T18:57:05.994Z,17.93
2019-06-08T18:59:10.515Z,22.73
2019-06-08T19:01:21.554Z,21.17
2019-06-08T19:03:23.831Z,25.13
2019-06-08T19:05:28.761Z,16.50
2019-06-08T19:07:33.795Z,17.63
2019-06-08T19:09:40.725Z,19.17
2019-06-08T19:11:46.363Z,18.37
2019-06-08T19:13:52.550Z,16.20
2019-06-08T19:15:59.866Z,19.07
2019-06-08T19:18:05.128Z,23.43
2019-06-08T19:20:10.534Z,27.07
2019-06-08T19:22:19.387Z,19.93
2019-06-08T19:24:25.065Z,26.70
2019-06-08T19:26:31.315Z,28.53
2019-06-08T19:28:45.005Z,21.07
2019-06-08T19:30:49.731Z,20.17
2019-06-08T19:32:57.827Z,16.53
2019-06-08T19:35:07.332Z,15.10
2019-06-08T19:37:17.233Z,16.57
2019-06-08T19:39:24.880Z,17.50
2019-06-08T19:41:30.465Z,13.67
2019-06-08T19:43:39.059Z,21.30
2019-06-08T19:45:52.004Z,13.50
2019-06-08T19:48:05.049Z,15.57
2019-06-08T19:50:13.050Z,14.47
2019-06-08T19:52:23.938Z,14.07
2019-06-08T19:54:32.346Z,11.87
2019-06-08T19:56:43.284Z,11.40
2019-06-08T19:59:00.376Z,15.37
2019-06-08T20:01:00.281Z,12.70
2019-06-08T20:03:07.825Z,11.43
2019-06-08T20:05:17.459Z,8.13
2019-06-08T20:07:24.594Z,12.10
2019-06-08T20:09:37.658Z,10.30
2019-06-08T20:11:56.501Z,10.50
2019-06-08T20:14:07.940Z,6.93
2019-06-08T20:16:17.385Z,8.47
2019-06-08T20:18:29.283Z,9.50
2019-06-08T20:20:34.545Z,9.00
2019-06-08T20:22:52.022Z,7.20
2019-06-08T20:25:02.698Z,8.73
2019-06-08T20:27:12.234Z,8.27
2019-06-08T20:29:20.077Z,10.77
2019-06-08T20:31:24.169Z,14.47
2019-06-08T20:33:30.004Z,7.70
2019-06-08T20:35:39.022Z,7.30
2019-06-08T20:37:47.866Z,9.27
2019-06-08T20:40:07.211Z,7.90
2019-06-08T20:42:11.680Z,6.07
2019-06-08T20:44:15.633Z,9.80
2019-06-08T20:46:20.714Z,5.33
2019-06-08T20:48:29.565Z,11.47
2019-06-08T20:50:34.378Z,9.73
2019-06-08T20:52:42.415Z,7.30
2019-06-08T20:54:53.568Z,13.57
2019-06-08T20:57:01.907Z,9.27
2019-06-08T20:59:08.259Z,7.60
2019-06-08T21:01:18.893Z,6.90
2019-06-08T21:03:23.879Z,10.87
2019-06-08T21:05:28.693Z,7.53
2019-06-08T21:07:33.500Z,6.77
2019-06-08T21:09:38.276Z,8.67
2019-06-08T21:11:44.976Z,8.63
2019-06-08T21:13:52.381Z,6.43
2019-06-08T21:16:00.307Z,9.10
2019-06-08T21:18:02.774Z,6.03
2019-06-08T21:20:08.581Z,8.60
2019-06-08T21:22:14.169Z,8.53
2019-06-08T21:24:19.108Z,10.87
2019-06-08T21:26:23.912Z,6.60
2019-06-08T21:28:28.632Z,6.17
2019-06-08T21:30:33.683Z,4.37
2019-06-08T21:32:38.869Z,7.33
2019-06-08T21:34:43.691Z,9.00
2019-06-08T21:36:49.828Z,7.43
2019-06-08T21:39:00.024Z,7.73
2019-06-08T21:41:02.962Z,9.07
2019-06-08T21:43:08.329Z,8.50
2019-06-08T21:45:13.338Z,6.00
2019-06-08T21:47:18.146Z,9.00
2019-06-08T21:49:24.383Z,7.00
2019-06-08T21:51:29.273Z,8.43
2019-06-08T21:53:34.191Z,11.00
2019-06-08T21:55:39.004Z,7.13
2019-06-08T21:57:44.063Z,6.17
2019-06-08T21:59:59.401Z,9.30
2019-06-08T22:01:59.436Z,6.57
2019-06-08T22:04:02.344Z,5.37
2019-06-08T22:06:08.780Z,5.80
2019-06-08T22:08:13.511Z,5.93
2019-06-08T22:10:18.262Z,6.13
2019-06-08T22:12:23.106Z,7.63
2019-06-08T22:14:27.934Z,7.33
2019-06-08T22:16:32.826Z,9.23
2019-06-08T22:18:38.183Z,8.80
2019-06-08T22:20:43.286Z,9.20
2019-06-08T22:22:51.825Z,6.13
2019-06-08T22:24:59.353Z,12.20
2019-06-08T22:27:03.685Z,6.03
2019-06-08T22:29:08.919Z,8.67
2019-06-08T22:31:13.758Z,6.00
2019-06-08T22:33:18.708Z,7.67
2019-06-08T22:35:23.639Z,15.40
2019-06-08T22:37:28.484Z,6.10
2019-06-08T22:39:33.503Z,4.77
2019-06-08T22:41:38.276Z,5.80
2019-06-08T22:43:43.180Z,6.23
2019-06-08T22:45:48.239Z,5.90
2019-06-08T22:47:58.600Z,10.70
2019-06-08T22:50:08.109Z,8.17
2019-06-08T22:52:14.944Z,5.67
2019-06-08T22:54:19.847Z,5.13
2019-06-08T22:56:24.598Z,5.10
2019-06-08T22:58:29.323Z,5.43
2019-06-08T23:00:50.814Z,7.03
2019-06-08T23:02:40.381Z,6.30
2019-06-08T23:04:47.511Z,5.00
2019-06-08T23:06:52.531Z,7.37
2019-06-08T23:09:00.719Z,7.23
2019-06-08T23:11:05.133Z,6.43
2019-06-08T23:13:10.604Z,4.27
2019-06-08T23:15:18.344Z,7.20
2019-06-08T23:17:23.383Z,7.90
2019-06-08T23:19:28.287Z,9.97
2019-06-08T23:21:33.391Z,4.67
2019-06-08T23:23:38.300Z,4.67
2019-06-08T23:25:43.164Z,7.73
2019-06-08T23:27:48.362Z,6.20
2019-06-08T23:29:53.528Z,6.17
2019-06-08T23:32:01.085Z,18.30
2019-06-08T23:34:09.535Z,5.63
2019-06-08T23:38:18.242Z,6.43
2019-06-08T23:40:23.025Z,8.93
2019-06-08T23:42:27.881Z,5.83
2019-06-08T23:44:32.505Z,4.00
2019-06-08T23:46:38.068Z,5.40
2019-06-08T23:48:42.944Z,4.47
2019-06-08T23:50:47.806Z,5.93
2019-06-08T23:52:52.618Z,6.30
2019-06-08T23:54:59.556Z,4.87
2019-06-08T23:57:04.908Z,6.43
2019-06-08T23:59:09.731Z,3.67
